Gallup Mills, Vermont
Current Conditions -  °F | °C
As of 11:35 PM on Saturday 22 Nov 2014 (Local Time) from KCDA Reporting Station
Overcast Overcast  
Wind Chill: 30°   Ceiling: 2000
Heat Index: 34°   Visibility: 10mi
Dew Point: 22°   Wind: 5mph
Humidity: 61%   Direction: 130°SE
Pressure: 29.93"   Gusts: NA
Location:  44.5627°N, 71.7775°W
Report Text: KCDA 230435Z AUTO 13004KT 10SM OVC020 01/M05 A2993 RMK AO2 T00131055
Loading
Personal Weather Stations






























Interactive Weather Map New forecast layout! Learn more

10-Day Weather Forecast

Advertisements
Track Severe Weather on mobile